Halo — ZGFD6 — position and weather

sailwx.info

Track history (hours):
 
Tides and Currents Weather Stations Pressure Air Temp Water Temp Dewpoint Dewpoint Depression Visibility Wind Speed Wind Dir Waves Ship Positions

Halo

Last reported at 2017-Nov-09 16:34 UTC. Time now 2017-Nov-23 00:19 UTC.
Position N 32°43' W 117°13'.
Warning: this ship's position is 13 days out of date.

Length 55 m; draft 3.3 m.

Type: Pleasure craft. MMSI: 319086500.

Date/timePositionNaut miles runAvg speedWind from/ knotsBaromVisibWave heightAir tempDewpointWater temp
2017-Nov-09 16:34N 32°43' W 117°13'110.0
2017-Nov-09 16:27N 32°42' W 117°14'5 9.6
2017-Nov-09 15:54N 32°37' W 117°13'1 1.6
2017-Nov-09 15:26N 32°37' W 117°12'3 8.1
2017-Nov-09 15:00N 32°35' W 117°16'5 9.7
2017-Nov-09 14:29N 32°37' W 117°21'510.5
2017-Nov-09 14:00N 32°38' W 117°27'611.5
2017-Nov-09 13:30N 32°39' W 117°34'6711.2
2017-Nov-09 07:33N 32°53' W 118°51'111.3
2017-Nov-09 07:30N 32°53' W 118°52'1011.3
2017-Nov-09 06:38N 32°57' W 119°03'111.7
2017-Nov-09 06:30N 32°58' W 119°04'611.7
2017-Nov-09 06:00N 33°01' W 119°10'611.5
2017-Nov-09 05:27N 33°03' W 119°17'511.6
2017-Nov-09 04:59N 33°06' W 119°23'511.5
2017-Nov-09 04:30N 33°08' W 119°29'611.4
2017-Nov-09 04:00N 33°11' W 119°35'611.6
2017-Nov-09 03:30N 33°14' W 119°41'611.6
2017-Nov-09 03:00N 33°18' W 119°46'711.5
2017-Nov-09 02:24N 33°23' W 119°52'511.6
2017-Nov-09 02:00N 33°26' W 119°56'612.0
2017-Nov-09 01:30N 33°29' W 120°02'611.5
2017-Nov-09 01:00N 33°33' W 120°07'712.2
2017-Nov-09 00:27N 33°38' W 120°13'612.5
2017-Nov-09 00:00N 33°42' W 120°18'612.2
2017-Nov-08 23:30N 33°45' W 120°23'611.7
2017-Nov-08 23:00N 33°49' W 120°29'611.9
2017-Nov-08 22:30N 33°53' W 120°34'611.3
2017-Nov-08 22:00N 33°57' W 120°39'611.6
2017-Nov-08 21:30N 34°02' W 120°43'611.9
2017-Nov-08 21:00N 34°07' W 120°47'612.0
2017-Nov-08 20:30N 34°12' W 120°50'611.6
2017-Nov-08 20:00N 34°17' W 120°54'510.7
2017-Nov-08 19:30N 34°22' W 120°57'510.6
2017-Nov-08 19:00N 34°26' W 121°00'510.8
2017-Nov-08 18:30N 34°31' W 121°04'511.0
2017-Nov-08 18:00N 34°36' W 121°07'510.9
2017-Nov-08 17:30N 34°40' W 121°10'611.0
2017-Nov-08 17:00N 34°45' W 121°14'611.1
2017-Nov-08 16:30N 34°50' W 121°17'1010.9
2017-Nov-08 15:33N 34°59' W 121°23'010.7
2017-Nov-08 15:30N 34°59' W 121°23'711.6
2017-Nov-08 14:52N 35°06' W 121°28'510.7
2017-Nov-08 14:25N 35°10' W 121°31'410.8
2017-Nov-08 14:00N 35°14' W 121°33'510.7
2017-Nov-08 13:30N 35°19' W 121°37'611.2
2017-Nov-08 12:59N 35°24' W 121°40'710.9
2017-Nov-08 12:22N 35°30' W 121°44'2110.9
2017-Nov-08 10:28N 35°47' W 121°57'3210.6
2017-Nov-08 07:29N 36°15' W 122°16'510.8
2017-Nov-08 07:00N 36°19' W 122°20'611.0
2017-Nov-08 06:30N 36°24' W 122°22'611.1
2017-Nov-08 06:00N 36°30' W 122°24'611.3
2017-Nov-08 05:30N 36°35' W 122°27'611.8
2017-Nov-08 05:00N 36°40' W 122°29'611.9
2017-Nov-08 04:30N 36°46' W 122°32'611.6
2017-Nov-08 04:00N 36°51' W 122°35'611.1
2017-Nov-08 03:30N 36°57' W 122°37'611.3
2017-Nov-08 03:00N 37°02' W 122°39'611.4
2017-Nov-08 02:30N 37°07' W 122°42'611.5
2017-Nov-08 02:00N 37°13' W 122°43'612.1
2017-Nov-08 01:30N 37°19' W 122°43'611.9
2017-Nov-08 01:00N 37°25' W 122°44'611.6
2017-Nov-08 00:30N 37°31' W 122°44'611.4
2017-Nov-08 00:00N 37°36' W 122°44'611.2
2017-Nov-07 23:28N 37°42' W 122°42'510.2
2017-Nov-07 23:00N 37°46' W 122°38'612.2
2017-Nov-07 22:30N 37°48' W 122°31'511.0
2017-Nov-07 22:00N 37°49' W 122°24'510.7
2017-Nov-07 21:30N 37°48' W 122°18'1 1.0
2017-Nov-07 20:58N 37°47' W 122°17'0 0.0
2017-Nov-07 20:28N 37°47' W 122°17'0 0.0
2017-Nov-07 19:58N 37°47' W 122°17'0 0.0
2017-Nov-07 19:29N 37°47' W 122°17'0 0.0
2017-Nov-07 18:58N 37°47' W 122°17'0 0.0
2017-Nov-07 18:28N 37°47' W 122°17'0 0.0
2017-Nov-07 17:52N 37°47' W 122°17'0 0.0
2017-Nov-07 17:28N 37°47' W 122°17'0 0.0
2017-Nov-07 16:58N 37°47' W 122°17'0 0.0
2017-Nov-07 16:28N 37°47' W 122°17'0 0.0
2017-Nov-07 15:58N 37°47' W 122°17'0 0.0
2017-Nov-07 15:22N 37°47' W 122°17'0 0.0
2017-Nov-07 14:58N 37°47' W 122°17'0 0.0
2017-Nov-07 14:28N 37°47' W 122°17'0 0.0
2017-Nov-07 13:58N 37°47' W 122°17'0 0.0
2017-Nov-07 13:29N 37°47' W 122°17'0 0.0
2017-Nov-07 12:58N 37°47' W 122°17'0 0.0
2017-Nov-07 12:28N 37°47' W 122°17'0 0.0
2017-Nov-07 11:58N 37°47' W 122°17'0 0.1
2017-Nov-07 11:28N 37°47' W 122°17'0 0.1
2017-Nov-07 10:58N 37°47' W 122°17'0 0.0
2017-Nov-07 10:28N 37°47' W 122°17'0 0.0
2017-Nov-07 09:58N 37°47' W 122°17'0 0.0
2017-Nov-07 09:28N 37°47' W 122°17'0 0.0
2017-Nov-07 08:58N 37°47' W 122°17'0 0.0
2017-Nov-07 08:28N 37°47' W 122°17'0 0.0
2017-Nov-07 07:58N 37°47' W 122°17'0 0.0
2017-Nov-07 07:28N 37°47' W 122°17'0 0.0
2017-Nov-07 06:58N 37°47' W 122°17'0 0.0
2017-Nov-07 06:28N 37°47' W 122°17'0 0.0
2017-Nov-07 05:58N 37°47' W 122°17'0 0.0
2017-Nov-07 05:28N 37°47' W 122°17'0 0.0
2017-Nov-07 04:58N 37°47' W 122°17'0 0.0
2017-Nov-07 04:28N 37°47' W 122°17'0 0.0
2017-Nov-07 03:58N 37°47' W 122°17'0 0.0
2017-Nov-07 03:22N 37°47' W 122°17'0 0.0
2017-Nov-07 02:58N 37°47' W 122°17'0 0.0
2017-Nov-07 02:28N 37°47' W 122°17'0 0.0
2017-Nov-07 01:58N 37°47' W 122°17'0 0.0
2017-Nov-07 01:28N 37°47' W 122°17'0 0.0
2017-Nov-07 00:58N 37°47' W 122°17'0 0.0
2017-Nov-07 00:28N 37°47' W 122°17'0 0.0
2017-Nov-06 23:58N 37°47' W 122°17'0 0.0
2017-Nov-06 23:28N 37°47' W 122°17'0 0.0
2017-Nov-06 22:58N 37°47' W 122°17'0 0.0
2017-Nov-06 22:28N 37°47' W 122°17'0 0.0
2017-Nov-06 21:59N 37°47' W 122°17'0 0.0
2017-Nov-06 21:28N 37°47' W 122°17'0 0.0
2017-Nov-06 20:58N 37°47' W 122°17'0 0.0
2017-Nov-06 20:28N 37°47' W 122°17'0 0.0
2017-Nov-06 02:28N 37°47' W 122°17'0 0.0
2017-Nov-06 01:58N 37°47' W 122°17'0 0.0
2017-Nov-06 01:28N 37°47' W 122°17'0 0.0
2017-Nov-06 00:58N 37°47' W 122°17'0 0.0
2017-Nov-06 00:28N 37°47' W 122°17'0 0.0
2017-Nov-05 23:58N 37°47' W 122°17'0 0.0
2017-Nov-05 23:28N 37°47' W 122°17'0 0.0
2017-Nov-05 22:59N 37°47' W 122°17'0 0.0
2017-Nov-05 22:28N 37°47' W 122°17'0 0.0
2017-Nov-05 21:59N 37°47' W 122°17'0 0.0
2017-Nov-05 21:28N 37°47' W 122°17'0 0.0
2017-Nov-05 20:58N 37°47' W 122°17'0 0.0
2017-Nov-05 20:28N 37°47' W 122°17'0 0.1
2017-Nov-05 19:58N 37°47' W 122°17'0 0.1
2017-Nov-05 19:28N 37°47' W 122°17'0 0.0
2017-Nov-05 18:58N 37°47' W 122°17'0 0.0
2017-Nov-05 18:28N 37°47' W 122°17'0 0.0
2017-Nov-05 17:58N 37°47' W 122°17'0 0.0
2017-Nov-05 17:28N 37°47' W 122°17'0 0.0
2017-Nov-05 16:58N 37°47' W 122°17'0 0.0
2017-Nov-05 16:28N 37°47' W 122°17'0 0.0
2017-Nov-05 15:58N 37°47' W 122°17'0 0.0
2017-Nov-05 15:28N 37°47' W 122°17'0 0.0
2017-Nov-05 14:58N 37°47' W 122°17'0 0.0
2017-Nov-05 14:28N 37°47' W 122°17'0 0.0
2017-Nov-05 13:58N 37°47' W 122°17'0 0.0
2017-Nov-05 13:28N 37°47' W 122°17'0 0.0
2017-Nov-05 12:58N 37°47' W 122°17'0 0.0
2017-Nov-05 12:28N 37°47' W 122°17'0 0.0
2017-Nov-05 11:58N 37°47' W 122°17'0 0.1
2017-Nov-05 11:29N 37°47' W 122°17'0 0.1
2017-Nov-05 10:58N 37°47' W 122°17'0 0.0
2017-Nov-05 10:28N 37°47' W 122°17'0 0.0
2017-Nov-05 09:58N 37°47' W 122°17'0 0.0
2017-Nov-05 09:29N 37°47' W 122°17'0 0.0
2017-Nov-05 08:58N 37°47' W 122°17'0 0.0
2017-Nov-05 08:29N 37°47' W 122°17'0 0.0
2017-Nov-05 07:58N 37°47' W 122°17'0 0.0
2017-Nov-05 07:28N 37°47' W 122°17'0 0.0
2017-Nov-05 06:58N 37°47' W 122°17'0 0.0
2017-Nov-05 06:28N 37°47' W 122°17'0 0.0
2017-Nov-05 05:58N 37°47' W 122°17'0 0.0
2017-Nov-05 05:29N 37°47' W 122°17'0 0.0
2017-Nov-05 04:58N 37°47' W 122°17'0 0.0
2017-Nov-05 04:28N 37°47' W 122°17'0 0.1
2017-Nov-05 03:58N 37°47' W 122°17'0 0.1
2017-Nov-05 03:22N 37°47' W 122°17'0 0.0
2017-Nov-05 02:58N 37°47' W 122°17'0 0.0
2017-Nov-05 02:28N 37°47' W 122°17'0 0.0
2017-Nov-05 01:58N 37°47' W 122°17'0 0.0
2017-Nov-05 01:28N 37°47' W 122°17'0 0.0
2017-Nov-05 00:55N 37°47' W 122°17'0 0.0
2017-Nov-05 00:28N 37°47' W 122°17'0 0.0
2017-Nov-04 23:58N 37°47' W 122°17'0 0.0
2017-Nov-04 23:25N 37°47' W 122°17'0 0.0
2017-Nov-04 22:58N 37°47' W 122°17'0 0.0
2017-Nov-04 22:29N 37°47' W 122°17'0 0.0
2017-Nov-04 21:58N 37°47' W 122°17'0 0.0
2017-Nov-04 21:28N 37°47' W 122°17'0 0.0
2017-Nov-04 20:58N 37°47' W 122°17'0 0.0
2017-Nov-04 20:28N 37°47' W 122°17'0 0.0
2017-Nov-04 19:58N 37°47' W 122°17'0 0.0
2017-Nov-04 19:16N 37°47' W 122°17'0 0.0
2017-Nov-04 18:58N 37°47' W 122°17'0 0.0
2017-Nov-04 18:28N 37°47' W 122°17'0 0.0
2017-Nov-04 17:58N 37°47' W 122°17'0 0.0
2017-Nov-04 17:28N 37°47' W 122°17'0 0.0
2017-Nov-04 16:58N 37°47' W 122°17'0 0.0
2017-Nov-04 16:28N 37°47' W 122°17'0 0.0
2017-Nov-04 15:58N 37°47' W 122°17'0 0.0
2017-Nov-04 15:29N 37°47' W 122°17'0 0.0
2017-Nov-04 14:58N 37°47' W 122°17'0 0.0
2017-Nov-04 14:28N 37°47' W 122°17'0 0.0
2017-Nov-04 13:58N 37°47' W 122°17'0 0.0
2017-Nov-04 13:28N 37°47' W 122°17'0 0.0
2017-Nov-04 12:58N 37°47' W 122°17'0 0.0
2017-Nov-04 12:28N 37°47' W 122°17'0 0.0
2017-Nov-04 11:58N 37°47' W 122°17'0 0.0
2017-Nov-04 11:28N 37°47' W 122°17'0 0.0
2017-Nov-04 10:58N 37°47' W 122°17'0 0.0
2017-Nov-04 10:29N 37°47' W 122°17'0 0.0
2017-Nov-04 09:58N 37°47' W 122°17'0 0.0
2017-Nov-04 09:28N 37°47' W 122°17'0 0.0
2017-Nov-04 08:58N 37°47' W 122°17'0 0.0
2017-Nov-04 08:28N 37°47' W 122°17'0 0.0
2017-Nov-04 07:58N 37°47' W 122°17'0 0.0
2017-Nov-04 07:28N 37°47' W 122°17'0 0.0
2017-Nov-04 06:59N 37°47' W 122°17'0 0.0
2017-Nov-04 06:28N 37°47' W 122°17'0 0.0
2017-Nov-04 05:59N 37°47' W 122°17'0 0.0
2017-Nov-04 05:28N 37°47' W 122°17'0 0.0
2017-Nov-04 04:59N 37°47' W 122°17'0 0.0
2017-Nov-04 04:28N 37°47' W 122°17'0 0.0
2017-Nov-04 03:58N 37°47' W 122°17'0 0.0
2017-Nov-04 03:28N 37°47' W 122°17'0 0.0
2017-Nov-04 02:58N 37°47' W 122°17'0 0.0
2017-Nov-04 02:28N 37°47' W 122°17'0 0.0
2017-Nov-04 01:58N 37°47' W 122°17'0 0.0
2017-Nov-04 01:25N 37°47' W 122°17'0 0.0
2017-Nov-04 00:58N 37°47' W 122°17'0 0.0
2017-Nov-04 00:28N 37°47' W 122°17'0 0.0
2017-Nov-03 23:58N 37°47' W 122°17'0 0.0
2017-Nov-03 23:28N 37°47' W 122°17'0 0.0
2017-Nov-03 22:58N 37°47' W 122°17'0 0.0
2017-Nov-03 22:28N 37°47' W 122°17'0 0.0
2017-Nov-03 21:59N 37°47' W 122°17'0 0.0
2017-Nov-03 21:28N 37°47' W 122°17'0 0.0
2017-Nov-03 20:58N 37°47' W 122°17'0 0.0
2017-Nov-03 20:28N 37°47' W 122°17'0 0.0
2017-Nov-03 19:58N 37°47' W 122°17'0 0.0
2017-Nov-03 19:28N 37°47' W 122°17'0 0.0
2017-Nov-03 18:59N 37°47' W 122°17'0 0.0
2017-Nov-03 18:28N 37°47' W 122°17'0 0.0
2017-Nov-03 17:59N 37°47' W 122°17'0 0.0
2017-Nov-03 17:28N 37°47' W 122°17'0 0.0
2017-Nov-03 16:58N 37°47' W 122°17'0 0.0
2017-Nov-03 16:28N 37°47' W 122°17'0 0.0
2017-Nov-03 15:58N 37°47' W 122°17'0 0.0
2017-Nov-03 15:28N 37°47' W 122°17'0 0.0
2017-Nov-03 14:58N 37°47' W 122°17'0 0.0
2017-Nov-03 14:28N 37°47' W 122°17'0 0.0
2017-Nov-03 13:58N 37°47' W 122°17'0 0.0
2017-Nov-03 13:28N 37°47' W 122°17'0 0.0
2017-Nov-03 12:58N 37°47' W 122°17'0 0.0
2017-Nov-03 12:28N 37°47' W 122°17'0 0.0
2017-Nov-03 11:58N 37°47' W 122°17'0 0.0
2017-Nov-03 11:28N 37°47' W 122°17'0 0.0
2017-Nov-03 10:58N 37°47' W 122°17'0 0.0
2017-Nov-03 10:28N 37°47' W 122°17'0 0.0
2017-Nov-03 09:58N 37°47' W 122°17'0 0.0
2017-Nov-03 09:28N 37°47' W 122°17'0 0.0
2017-Nov-03 08:58N 37°47' W 122°17'0 0.0
2017-Nov-03 08:28N 37°47' W 122°17'0 0.0
2017-Nov-03 07:58N 37°47' W 122°17'0 0.0
2017-Nov-03 07:28N 37°47' W 122°17'0 0.0
2017-Nov-03 06:58N 37°47' W 122°17'0 0.0
2017-Nov-03 06:28N 37°47' W 122°17'0 0.0
2017-Nov-03 05:58N 37°47' W 122°17'0 0.0
2017-Nov-03 05:28N 37°47' W 122°17'0 0.0
2017-Nov-03 04:58N 37°47' W 122°17'0 0.0
2017-Nov-03 04:25N 37°47' W 122°17'0 0.0
2017-Nov-03 03:58N 37°47' W 122°17'0 0.0
2017-Nov-03 03:29N 37°47' W 122°17'0 0.0
2017-Nov-03 02:58N 37°47' W 122°17'0 0.0
2017-Nov-03 02:28N 37°47' W 122°17'0 0.0
2017-Nov-03 01:58N 37°47' W 122°17'0 0.0
2017-Nov-03 01:28N 37°47' W 122°17'0 0.0
2017-Nov-03 00:58N 37°47' W 122°17'0 0.0
2017-Nov-03 00:29N 37°47' W 122°17'0 0.0
2017-Nov-02 23:58N 37°47' W 122°17'0 0.0
2017-Nov-02 23:28N 37°47' W 122°17'0 0.0
2017-Nov-02 22:58N 37°47' W 122°17'0 0.0
2017-Nov-02 22:28N 37°47' W 122°17'0 0.0
2017-Nov-02 21:58N 37°47' W 122°17'0 0.0
2017-Nov-02 21:28N 37°47' W 122°17'0 0.0
2017-Nov-02 20:58N 37°47' W 122°17'0 0.0
2017-Nov-02 20:28N 37°47' W 122°17'0 0.0
2017-Nov-02 19:58N 37°47' W 122°17'0 0.1
2017-Nov-02 19:28N 37°47' W 122°17'0 0.1
2017-Nov-02 18:58N 37°47' W 122°17'0 0.0
2017-Nov-02 18:28N 37°47' W 122°17'0 0.0
2017-Nov-02 17:55N 37°47' W 122°17'0 0.0
2017-Nov-02 17:28N 37°47' W 122°17'0 0.0
2017-Nov-02 16:59N 37°47' W 122°17'0 0.0
2017-Nov-02 16:28N 37°47' W 122°17'0 0.0
2017-Nov-02 15:58N 37°47' W 122°17'0 0.0
2017-Nov-02 15:28N 37°47' W 122°17'0 0.0
2017-Nov-02 14:55N 37°47' W 122°17'0 0.0
2017-Nov-02 14:28N 37°47' W 122°17'0 0.0
2017-Nov-02 13:55N 37°47' W 122°17'0 0.0
2017-Nov-02 13:29N 37°47' W 122°17'0 0.0
2017-Nov-02 12:58N 37°47' W 122°17'0 0.0
2017-Nov-02 12:28N 37°47' W 122°17'0 0.1
2017-Nov-02 11:58N 37°47' W 122°17'0 0.1
2017-Nov-02 11:28N 37°47' W 122°17'0 0.0
2017-Nov-02 10:59N 37°47' W 122°17'0 0.0
2017-Nov-02 10:28N 37°47' W 122°17'0 0.0
2017-Nov-02 09:58N 37°47' W 122°17'0 0.0
2017-Nov-02 09:28N 37°47' W 122°17'0 0.0
2017-Nov-02 08:58N 37°47' W 122°17'0 0.0
2017-Nov-02 08:28N 37°47' W 122°17'0 0.0
2017-Nov-02 07:58N 37°47' W 122°17'0 0.0
2017-Nov-02 07:28N 37°47' W 122°17'0 0.0
2017-Nov-02 06:58N 37°47' W 122°17'0 0.0
2017-Nov-02 06:28N 37°47' W 122°17'0 0.0
2017-Nov-02 05:58N 37°47' W 122°17'0 0.0
2017-Nov-02 05:28N 37°47' W 122°17'0 0.0
2017-Nov-02 04:55N 37°47' W 122°17'0 0.0
2017-Nov-02 04:28N 37°47' W 122°17'0 0.0
2017-Nov-02 03:58N 37°47' W 122°17'0 0.0
2017-Nov-02 03:28N 37°47' W 122°17'0 0.0
2017-Nov-02 02:58N 37°47' W 122°17'0 0.0
2017-Nov-02 02:28N 37°47' W 122°17'0 0.0
2017-Nov-02 01:58N 37°47' W 122°17'0 0.0
2017-Nov-02 01:28N 37°47' W 122°17'0 0.0
2017-Nov-02 00:58N 37°47' W 122°17'0 0.0
2017-Nov-02 00:28N 37°47' W 122°17'0 0.0
2017-Nov-01 23:58N 37°47' W 122°17'0 0.0
2017-Nov-01 23:28N 37°47' W 122°17'0 0.0
2017-Nov-01 22:58N 37°47' W 122°17'0 0.0
2017-Nov-01 22:28N 37°47' W 122°17'0 0.0
2017-Nov-01 21:58N 37°47' W 122°17'0 0.0
2017-Nov-01 21:28N 37°47' W 122°17'0 0.0
2017-Nov-01 20:59N 37°47' W 122°17'0 0.0
2017-Nov-01 20:28N 37°47' W 122°17'0 0.0
2017-Nov-01 19:58N 37°47' W 122°17'0 0.0
2017-Nov-01 19:28N 37°47' W 122°17'0 0.0
2017-Nov-01 18:55N 37°47' W 122°17'0 0.0
2017-Nov-01 18:28N 37°47' W 122°17'0 0.0
2017-Nov-01 02:00N 37°47' W 122°17'0 0.0
2017-Nov-01 01:30N 37°47' W 122°17'0 0.0
2017-Nov-01 01:00N 37°47' W 122°17'0 0.1
2017-Nov-01 00:30N 37°47' W 122°17'0 0.1
2017-Nov-01 00:00N 37°47' W 122°17'0 0.0
2017-Oct-31 23:30N 37°47' W 122°17'0 0.0
2017-Oct-31 23:00N 37°47' W 122°17'0 0.0
2017-Oct-31 22:30N 37°47' W 122°17'0 0.0
2017-Oct-31 22:00N 37°47' W 122°17'0 0.0
2017-Oct-31 21:30N 37°47' W 122°17'0 0.0
2017-Oct-31 21:00N 37°47' W 122°17'0 0.0
2017-Oct-31 20:30N 37°47' W 122°17'0 0.0
2017-Oct-31 20:00N 37°47' W 122°17'0 0.0
2017-Oct-31 19:30N 37°47' W 122°17'0 0.0
2017-Oct-31 19:00N 37°47' W 122°17'0 0.0
2017-Oct-31 18:30N 37°47' W 122°17'0 0.0
2017-Oct-31 18:00N 37°47' W 122°17'0 0.0
2017-Oct-31 17:30N 37°47' W 122°17'0 0.0
2017-Oct-31 17:00N 37°47' W 122°17'0 0.0
2017-Oct-31 16:30N 37°47' W 122°17'0 0.0
2017-Oct-31 16:00N 37°47' W 122°17'0 0.0
2017-Oct-31 15:30N 37°47' W 122°17'0 0.0
2017-Oct-31 15:00N 37°47' W 122°17'0 0.1
2017-Oct-31 14:30N 37°47' W 122°17'0 0.1
2017-Oct-31 14:00N 37°47' W 122°17'0 0.0
2017-Oct-31 13:30N 37°47' W 122°17'0 0.0
2017-Oct-31 13:00N 37°47' W 122°17'0 0.0
2017-Oct-31 12:30N 37°47' W 122°17'0 0.0
2017-Oct-31 12:00N 37°47' W 122°17'0 0.0
2017-Oct-31 11:30N 37°47' W 122°17'0 0.0
2017-Oct-31 11:00N 37°47' W 122°17'0 0.0
2017-Oct-31 10:30N 37°47' W 122°17'0 0.0
2017-Oct-31 10:00N 37°47' W 122°17'0 0.0
2017-Oct-31 09:30N 37°47' W 122°17'0 0.0
2017-Oct-31 09:00N 37°47' W 122°17'0 0.0
2017-Oct-31 08:30N 37°47' W 122°17'0 0.0
2017-Oct-31 08:00N 37°47' W 122°17'0 0.0
2017-Oct-31 07:30N 37°47' W 122°17'0 0.0
2017-Oct-31 07:00N 37°47' W 122°17'0 0.0
2017-Oct-31 06:30N 37°47' W 122°17'0 0.0
2017-Oct-31 06:00N 37°47' W 122°17'0 0.0
2017-Oct-31 05:30N 37°47' W 122°17'0 0.0
2017-Oct-31 05:00N 37°47' W 122°17'0 0.1
2017-Oct-31 04:30N 37°47' W 122°17'0 0.1
2017-Oct-31 04:00N 37°47' W 122°17'0 0.0
2017-Oct-31 03:30N 37°47' W 122°17'0 0.0
2017-Oct-31 03:00N 37°47' W 122°17'0 0.0
2017-Oct-31 02:27N 37°47' W 122°17'0 0.0
2017-Oct-31 02:00N 37°47' W 122°17'0 0.0
2017-Oct-31 01:30N 37°47' W 122°17'0 0.0
2017-Oct-31 01:00N 37°47' W 122°17'0 0.1
2017-Oct-31 00:30N 37°47' W 122°17'0 0.1
2017-Oct-31 00:00N 37°47' W 122°17'0 0.0
2017-Oct-30 23:30N 37°47' W 122°17'0 0.2
2017-Oct-30 23:00N 37°48' W 122°17'0 0.0
2017-Oct-30 22:31N 37°48' W 122°17'0 0.1
2017-Oct-30 21:58N 37°47' W 122°17'0 0.0
2017-Oct-30 21:28N 37°47' W 122°17'0 0.0
2017-Oct-30 20:58N 37°47' W 122°17'0 0.0
2017-Oct-30 20:28N 37°47' W 122°17'0 0.0
2017-Oct-30 19:58N 37°47' W 122°17'0 0.0
2017-Oct-30 19:28N 37°47' W 122°17'0 0.0
2017-Oct-30 18:58N 37°47' W 122°17'0 0.0
2017-Oct-30 18:28N 37°47' W 122°17'0 0.0
2017-Oct-30 17:58N 37°47' W 122°17'0 0.0
2017-Oct-30 17:28N 37°47' W 122°17'0 0.0
2017-Oct-30 16:58N 37°47' W 122°17'  
Track history (hours):
 
Tides and Currents Weather Stations Pressure Air Temp Water Temp Dewpoint Dewpoint Depression Visibility Wind Speed Wind Dir Waves Ship Positions

Halo

Last reported at 2017-Nov-09 16:34 UTC. Time now 2017-Nov-23 00:19 UTC.
Position N 32°43' W 117°13'.
Warning: this ship's position is 13 days out of date.

Length 55 m; draft 3.3 m.

Type: Pleasure craft. MMSI: 319086500.

Date/timePositionNaut miles runAvg speedWind from/ knotsBaromVisibWave heightAir tempDewpointWater temp
2017-Nov-09 16:34N 32°43' W 117°13'110.0
2017-Nov-09 16:27N 32°42' W 117°14'5 9.6
2017-Nov-09 15:54N 32°37' W 117°13'1 1.6
2017-Nov-09 15:26N 32°37' W 117°12'3 8.1
2017-Nov-09 15:00N 32°35' W 117°16'5 9.7
2017-Nov-09 14:29N 32°37' W 117°21'510.5
2017-Nov-09 14:00N 32°38' W 117°27'611.5
2017-Nov-09 13:30N 32°39' W 117°34'6711.2
2017-Nov-09 07:33N 32°53' W 118°51'111.3
2017-Nov-09 07:30N 32°53' W 118°52'1011.3
2017-Nov-09 06:38N 32°57' W 119°03'111.7
2017-Nov-09 06:30N 32°58' W 119°04'611.7
2017-Nov-09 06:00N 33°01' W 119°10'611.5
2017-Nov-09 05:27N 33°03' W 119°17'511.6
2017-Nov-09 04:59N 33°06' W 119°23'511.5
2017-Nov-09 04:30N 33°08' W 119°29'611.4
2017-Nov-09 04:00N 33°11' W 119°35'611.6
2017-Nov-09 03:30N 33°14' W 119°41'611.6
2017-Nov-09 03:00N 33°18' W 119°46'711.5
2017-Nov-09 02:24N 33°23' W 119°52'511.6
2017-Nov-09 02:00N 33°26' W 119°56'612.0
2017-Nov-09 01:30N 33°29' W 120°02'611.5
2017-Nov-09 01:00N 33°33' W 120°07'712.2
2017-Nov-09 00:27N 33°38' W 120°13'612.5
2017-Nov-09 00:00N 33°42' W 120°18'612.2
2017-Nov-08 23:30N 33°45' W 120°23'611.7
2017-Nov-08 23:00N 33°49' W 120°29'611.9
2017-Nov-08 22:30N 33°53' W 120°34'611.3
2017-Nov-08 22:00N 33°57' W 120°39'611.6
2017-Nov-08 21:30N 34°02' W 120°43'611.9
2017-Nov-08 21:00N 34°07' W 120°47'612.0
2017-Nov-08 20:30N 34°12' W 120°50'611.6
2017-Nov-08 20:00N 34°17' W 120°54'510.7
2017-Nov-08 19:30N 34°22' W 120°57'510.6
2017-Nov-08 19:00N 34°26' W 121°00'510.8
2017-Nov-08 18:30N 34°31' W 121°04'511.0
2017-Nov-08 18:00N 34°36' W 121°07'510.9
2017-Nov-08 17:30N 34°40' W 121°10'611.0
2017-Nov-08 17:00N 34°45' W 121°14'611.1
2017-Nov-08 16:30N 34°50' W 121°17'1010.9
2017-Nov-08 15:33N 34°59' W 121°23'010.7
2017-Nov-08 15:30N 34°59' W 121°23'711.6
2017-Nov-08 14:52N 35°06' W 121°28'510.7
2017-Nov-08 14:25N 35°10' W 121°31'410.8
2017-Nov-08 14:00N 35°14' W 121°33'510.7
2017-Nov-08 13:30N 35°19' W 121°37'611.2
2017-Nov-08 12:59N 35°24' W 121°40'710.9
2017-Nov-08 12:22N 35°30' W 121°44'2110.9
2017-Nov-08 10:28N 35°47' W 121°57'3210.6
2017-Nov-08 07:29N 36°15' W 122°16'510.8
2017-Nov-08 07:00N 36°19' W 122°20'611.0
2017-Nov-08 06:30N 36°24' W 122°22'611.1
2017-Nov-08 06:00N 36°30' W 122°24'611.3
2017-Nov-08 05:30N 36°35' W 122°27'611.8
2017-Nov-08 05:00N 36°40' W 122°29'611.9
2017-Nov-08 04:30N 36°46' W 122°32'611.6
2017-Nov-08 04:00N 36°51' W 122°35'611.1
2017-Nov-08 03:30N 36°57' W 122°37'611.3
2017-Nov-08 03:00N 37°02' W 122°39'611.4
2017-Nov-08 02:30N 37°07' W 122°42'611.5
2017-Nov-08 02:00N 37°13' W 122°43'612.1
2017-Nov-08 01:30N 37°19' W 122°43'611.9
2017-Nov-08 01:00N 37°25' W 122°44'611.6
2017-Nov-08 00:30N 37°31' W 122°44'611.4
2017-Nov-08 00:00N 37°36' W 122°44'611.2
2017-Nov-07 23:28N 37°42' W 122°42'510.2
2017-Nov-07 23:00N 37°46' W 122°38'612.2
2017-Nov-07 22:30N 37°48' W 122°31'511.0
2017-Nov-07 22:00N 37°49' W 122°24'510.7
2017-Nov-07 21:30N 37°48' W 122°18'1 1.0
2017-Nov-07 20:58N 37°47' W 122°17'0 0.0
2017-Nov-07 20:28N 37°47' W 122°17'0 0.0
2017-Nov-07 19:58N 37°47' W 122°17'0 0.0
2017-Nov-07 19:29N 37°47' W 122°17'0 0.0
2017-Nov-07 18:58N 37°47' W 122°17'0 0.0
2017-Nov-07 18:28N 37°47' W 122°17'0 0.0
2017-Nov-07 17:52N 37°47' W 122°17'0 0.0
2017-Nov-07 17:28N 37°47' W 122°17'0 0.0
2017-Nov-07 16:58N 37°47' W 122°17'0 0.0
2017-Nov-07 16:28N 37°47' W 122°17'0 0.0
2017-Nov-07 15:58N 37°47' W 122°17'0 0.0
2017-Nov-07 15:22N 37°47' W 122°17'0 0.0
2017-Nov-07 14:58N 37°47' W 122°17'0 0.0
2017-Nov-07 14:28N 37°47' W 122°17'0 0.0
2017-Nov-07 13:58N 37°47' W 122°17'0 0.0
2017-Nov-07 13:29N 37°47' W 122°17'0 0.0
2017-Nov-07 12:58N 37°47' W 122°17'0 0.0
2017-Nov-07 12:28N 37°47' W 122°17'0 0.0
2017-Nov-07 11:58N 37°47' W 122°17'0 0.1
2017-Nov-07 11:28N 37°47' W 122°17'0 0.1
2017-Nov-07 10:58N 37°47' W 122°17'0 0.0
2017-Nov-07 10:28N 37°47' W 122°17'0 0.0
2017-Nov-07 09:58N 37°47' W 122°17'0 0.0
2017-Nov-07 09:28N 37°47' W 122°17'0 0.0
2017-Nov-07 08:58N 37°47' W 122°17'0 0.0
2017-Nov-07 08:28N 37°47' W 122°17'0 0.0
2017-Nov-07 07:58N 37°47' W 122°17'0 0.0
2017-Nov-07 07:28N 37°47' W 122°17'0 0.0
2017-Nov-07 06:58N 37°47' W 122°17'0 0.0
2017-Nov-07 06:28N 37°47' W 122°17'0 0.0
2017-Nov-07 05:58N 37°47' W 122°17'0 0.0
2017-Nov-07 05:28N 37°47' W 122°17'0 0.0
2017-Nov-07 04:58N 37°47' W 122°17'0 0.0
2017-Nov-07 04:28N 37°47' W 122°17'0 0.0
2017-Nov-07 03:58N 37°47' W 122°17'0 0.0
2017-Nov-07 03:22N 37°47' W 122°17'0 0.0
2017-Nov-07 02:58N 37°47' W 122°17'0 0.0
2017-Nov-07 02:28N 37°47' W 122°17'0 0.0
2017-Nov-07 01:58N 37°47' W 122°17'0 0.0
2017-Nov-07 01:28N 37°47' W 122°17'0 0.0
2017-Nov-07 00:58N 37°47' W 122°17'0 0.0
2017-Nov-07 00:28N 37°47' W 122°17'0 0.0
2017-Nov-06 23:58N 37°47' W 122°17'0 0.0
2017-Nov-06 23:28N 37°47' W 122°17'0 0.0
2017-Nov-06 22:58N 37°47' W 122°17'0 0.0
2017-Nov-06 22:28N 37°47' W 122°17'0 0.0
2017-Nov-06 21:59N 37°47' W 122°17'0 0.0
2017-Nov-06 21:28N 37°47' W 122°17'0 0.0
2017-Nov-06 20:58N 37°47' W 122°17'0 0.0
2017-Nov-06 20:28N 37°47' W 122°17'0 0.0
2017-Nov-06 02:28N 37°47' W 122°17'0 0.0
2017-Nov-06 01:58N 37°47' W 122°17'0 0.0
2017-Nov-06 01:28N 37°47' W 122°17'0 0.0
2017-Nov-06 00:58N 37°47' W 122°17'0 0.0
2017-Nov-06 00:28N 37°47' W 122°17'0 0.0
2017-Nov-05 23:58N 37°47' W 122°17'0 0.0
2017-Nov-05 23:28N 37°47' W 122°17'0 0.0
2017-Nov-05 22:59N 37°47' W 122°17'0 0.0
2017-Nov-05 22:28N 37°47' W 122°17'0 0.0
2017-Nov-05 21:59N 37°47' W 122°17'0 0.0
2017-Nov-05 21:28N 37°47' W 122°17'0 0.0
2017-Nov-05 20:58N 37°47' W 122°17'0 0.0
2017-Nov-05 20:28N 37°47' W 122°17'0 0.1
2017-Nov-05 19:58N 37°47' W 122°17'0 0.1
2017-Nov-05 19:28N 37°47' W 122°17'0 0.0
2017-Nov-05 18:58N 37°47' W 122°17'0 0.0
2017-Nov-05 18:28N 37°47' W 122°17'0 0.0
2017-Nov-05 17:58N 37°47' W 122°17'0 0.0
2017-Nov-05 17:28N 37°47' W 122°17'0 0.0
2017-Nov-05 16:58N 37°47' W 122°17'0 0.0
2017-Nov-05 16:28N 37°47' W 122°17'0 0.0
2017-Nov-05 15:58N 37°47' W 122°17'0 0.0
2017-Nov-05 15:28N 37°47' W 122°17'0 0.0
2017-Nov-05 14:58N 37°47' W 122°17'0 0.0
2017-Nov-05 14:28N 37°47' W 122°17'0 0.0
2017-Nov-05 13:58N 37°47' W 122°17'0 0.0
2017-Nov-05 13:28N 37°47' W 122°17'0 0.0
2017-Nov-05 12:58N 37°47' W 122°17'0 0.0
2017-Nov-05 12:28N 37°47' W 122°17'0 0.0
2017-Nov-05 11:58N 37°47' W 122°17'0 0.1
2017-Nov-05 11:29N 37°47' W 122°17'0 0.1
2017-Nov-05 10:58N 37°47' W 122°17'0 0.0
2017-Nov-05 10:28N 37°47' W 122°17'0 0.0
2017-Nov-05 09:58N 37°47' W 122°17'0 0.0
2017-Nov-05 09:29N 37°47' W 122°17'0 0.0
2017-Nov-05 08:58N 37°47' W 122°17'0 0.0
2017-Nov-05 08:29N 37°47' W 122°17'0 0.0
2017-Nov-05 07:58N 37°47' W 122°17'0 0.0
2017-Nov-05 07:28N 37°47' W 122°17'0 0.0
2017-Nov-05 06:58N 37°47' W 122°17'0 0.0
2017-Nov-05 06:28N 37°47' W 122°17'0 0.0
2017-Nov-05 05:58N 37°47' W 122°17'0 0.0
2017-Nov-05 05:29N 37°47' W 122°17'0 0.0
2017-Nov-05 04:58N 37°47' W 122°17'0 0.0
2017-Nov-05 04:28N 37°47' W 122°17'0 0.1
2017-Nov-05 03:58N 37°47' W 122°17'0 0.1
2017-Nov-05 03:22N 37°47' W 122°17'0 0.0
2017-Nov-05 02:58N 37°47' W 122°17'0 0.0
2017-Nov-05 02:28N 37°47' W 122°17'0 0.0
2017-Nov-05 01:58N 37°47' W 122°17'0 0.0
2017-Nov-05 01:28N 37°47' W 122°17'0 0.0
2017-Nov-05 00:55N 37°47' W 122°17'0 0.0
2017-Nov-05 00:28N 37°47' W 122°17'0 0.0
2017-Nov-04 23:58N 37°47' W 122°17'0 0.0
2017-Nov-04 23:25N 37°47' W 122°17'0 0.0
2017-Nov-04 22:58N 37°47' W 122°17'0 0.0
2017-Nov-04 22:29N 37°47' W 122°17'0 0.0
2017-Nov-04 21:58N 37°47' W 122°17'0 0.0
2017-Nov-04 21:28N 37°47' W 122°17'0 0.0
2017-Nov-04 20:58N 37°47' W 122°17'0 0.0
2017-Nov-04 20:28N 37°47' W 122°17'0 0.0
2017-Nov-04 19:58N 37°47' W 122°17'0 0.0
2017-Nov-04 19:16N 37°47' W 122°17'0 0.0
2017-Nov-04 18:58N 37°47' W 122°17'0 0.0
2017-Nov-04 18:28N 37°47' W 122°17'0 0.0
2017-Nov-04 17:58N 37°47' W 122°17'0 0.0
2017-Nov-04 17:28N 37°47' W 122°17'0 0.0
2017-Nov-04 16:58N 37°47' W 122°17'0 0.0
2017-Nov-04 16:28N 37°47' W 122°17'0 0.0
2017-Nov-04 15:58N 37°47' W 122°17'0 0.0
2017-Nov-04 15:29N 37°47' W 122°17'0 0.0
2017-Nov-04 14:58N 37°47' W 122°17'0 0.0
2017-Nov-04 14:28N 37°47' W 122°17'0 0.0
2017-Nov-04 13:58N 37°47' W 122°17'0 0.0
2017-Nov-04 13:28N 37°47' W 122°17'0 0.0
2017-Nov-04 12:58N 37°47' W 122°17'0 0.0
2017-Nov-04 12:28N 37°47' W 122°17'0 0.0
2017-Nov-04 11:58N 37°47' W 122°17'0 0.0
2017-Nov-04 11:28N 37°47' W 122°17'0 0.0
2017-Nov-04 10:58N 37°47' W 122°17'0 0.0
2017-Nov-04 10:29N 37°47' W 122°17'0 0.0
2017-Nov-04 09:58N 37°47' W 122°17'0 0.0
2017-Nov-04 09:28N 37°47' W 122°17'0 0.0
2017-Nov-04 08:58N 37°47' W 122°17'0 0.0
2017-Nov-04 08:28N 37°47' W 122°17'0 0.0
2017-Nov-04 07:58N 37°47' W 122°17'0 0.0
2017-Nov-04 07:28N 37°47' W 122°17'0 0.0
2017-Nov-04 06:59N 37°47' W 122°17'0 0.0
2017-Nov-04 06:28N 37°47' W 122°17'0 0.0
2017-Nov-04 05:59N 37°47' W 122°17'0 0.0
2017-Nov-04 05:28N 37°47' W 122°17'0 0.0
2017-Nov-04 04:59N 37°47' W 122°17'0 0.0
2017-Nov-04 04:28N 37°47' W 122°17'0 0.0
2017-Nov-04 03:58N 37°47' W 122°17'0 0.0
2017-Nov-04 03:28N 37°47' W 122°17'0 0.0
2017-Nov-04 02:58N 37°47' W 122°17'0 0.0
2017-Nov-04 02:28N 37°47' W 122°17'0 0.0
2017-Nov-04 01:58N 37°47' W 122°17'0 0.0
2017-Nov-04 01:25N 37°47' W 122°17'0 0.0
2017-Nov-04 00:58N 37°47' W 122°17'0 0.0
2017-Nov-04 00:28N 37°47' W 122°17'0 0.0
2017-Nov-03 23:58N 37°47' W 122°17'0 0.0
2017-Nov-03 23:28N 37°47' W 122°17'0 0.0
2017-Nov-03 22:58N 37°47' W 122°17'0 0.0
2017-Nov-03 22:28N 37°47' W 122°17'0 0.0
2017-Nov-03 21:59N 37°47' W 122°17'0 0.0
2017-Nov-03 21:28N 37°47' W 122°17'0 0.0
2017-Nov-03 20:58N 37°47' W 122°17'0 0.0
2017-Nov-03 20:28N 37°47' W 122°17'0 0.0
2017-Nov-03 19:58N 37°47' W 122°17'0 0.0
2017-Nov-03 19:28N 37°47' W 122°17'0 0.0
2017-Nov-03 18:59N 37°47' W 122°17'0 0.0
2017-Nov-03 18:28N 37°47' W 122°17'0 0.0
2017-Nov-03 17:59N 37°47' W 122°17'0 0.0
2017-Nov-03 17:28N 37°47' W 122°17'0 0.0
2017-Nov-03 16:58N 37°47' W 122°17'0 0.0
2017-Nov-03 16:28N 37°47' W 122°17'0 0.0
2017-Nov-03 15:58N 37°47' W 122°17'0 0.0
2017-Nov-03 15:28N 37°47' W 122°17'0 0.0
2017-Nov-03 14:58N 37°47' W 122°17'0 0.0
2017-Nov-03 14:28N 37°47' W 122°17'0 0.0
2017-Nov-03 13:58N 37°47' W 122°17'0 0.0
2017-Nov-03 13:28N 37°47' W 122°17'0 0.0
2017-Nov-03 12:58N 37°47' W 122°17'0 0.0
2017-Nov-03 12:28N 37°47' W 122°17'0 0.0
2017-Nov-03 11:58N 37°47' W 122°17'0 0.0
2017-Nov-03 11:28N 37°47' W 122°17'0 0.0
2017-Nov-03 10:58N 37°47' W 122°17'0 0.0
2017-Nov-03 10:28N 37°47' W 122°17'0 0.0
2017-Nov-03 09:58N 37°47' W 122°17'0 0.0
2017-Nov-03 09:28N 37°47' W 122°17'0 0.0
2017-Nov-03 08:58N 37°47' W 122°17'0 0.0
2017-Nov-03 08:28N 37°47' W 122°17'0 0.0
2017-Nov-03 07:58N 37°47' W 122°17'0 0.0
2017-Nov-03 07:28N 37°47' W 122°17'0 0.0
2017-Nov-03 06:58N 37°47' W 122°17'0 0.0
2017-Nov-03 06:28N 37°47' W 122°17'0 0.0
2017-Nov-03 05:58N 37°47' W 122°17'0 0.0
2017-Nov-03 05:28N 37°47' W 122°17'0 0.0
2017-Nov-03 04:58N 37°47' W 122°17'0 0.0
2017-Nov-03 04:25N 37°47' W 122°17'0 0.0
2017-Nov-03 03:58N 37°47' W 122°17'0 0.0
2017-Nov-03 03:29N 37°47' W 122°17'0 0.0
2017-Nov-03 02:58N 37°47' W 122°17'0 0.0
2017-Nov-03 02:28N 37°47' W 122°17'0 0.0
2017-Nov-03 01:58N 37°47' W 122°17'0 0.0
2017-Nov-03 01:28N 37°47' W 122°17'0 0.0
2017-Nov-03 00:58N 37°47' W 122°17'0 0.0
2017-Nov-03 00:29N 37°47' W 122°17'0 0.0
2017-Nov-02 23:58N 37°47' W 122°17'0 0.0
2017-Nov-02 23:28N 37°47' W 122°17'0 0.0
2017-Nov-02 22:58N 37°47' W 122°17'0 0.0
2017-Nov-02 22:28N 37°47' W 122°17'0 0.0
2017-Nov-02 21:58N 37°47' W 122°17'0 0.0
2017-Nov-02 21:28N 37°47' W 122°17'0 0.0
2017-Nov-02 20:58N 37°47' W 122°17'0 0.0
2017-Nov-02 20:28N 37°47' W 122°17'0 0.0
2017-Nov-02 19:58N 37°47' W 122°17'0 0.1
2017-Nov-02 19:28N 37°47' W 122°17'0 0.1
2017-Nov-02 18:58N 37°47' W 122°17'0 0.0
2017-Nov-02 18:28N 37°47' W 122°17'0 0.0
2017-Nov-02 17:55N 37°47' W 122°17'0 0.0
2017-Nov-02 17:28N 37°47' W 122°17'0 0.0
2017-Nov-02 16:59N 37°47' W 122°17'0 0.0
2017-Nov-02 16:28N 37°47' W 122°17'0 0.0
2017-Nov-02 15:58N 37°47' W 122°17'0 0.0
2017-Nov-02 15:28N 37°47' W 122°17'0 0.0
2017-Nov-02 14:55N 37°47' W 122°17'0 0.0
2017-Nov-02 14:28N 37°47' W 122°17'0 0.0
2017-Nov-02 13:55N 37°47' W 122°17'0 0.0
2017-Nov-02 13:29N 37°47' W 122°17'0 0.0
2017-Nov-02 12:58N 37°47' W 122°17'0 0.0
2017-Nov-02 12:28N 37°47' W 122°17'0 0.1
2017-Nov-02 11:58N 37°47' W 122°17'0 0.1
2017-Nov-02 11:28N 37°47' W 122°17'0 0.0
2017-Nov-02 10:59N 37°47' W 122°17'0 0.0
2017-Nov-02 10:28N 37°47' W 122°17'0 0.0
2017-Nov-02 09:58N 37°47' W 122°17'0 0.0
2017-Nov-02 09:28N 37°47' W 122°17'0 0.0
2017-Nov-02 08:58N 37°47' W 122°17'0 0.0
2017-Nov-02 08:28N 37°47' W 122°17'0 0.0
2017-Nov-02 07:58N 37°47' W 122°17'0 0.0
2017-Nov-02 07:28N 37°47' W 122°17'0 0.0
2017-Nov-02 06:58N 37°47' W 122°17'0 0.0
2017-Nov-02 06:28N 37°47' W 122°17'0 0.0
2017-Nov-02 05:58N 37°47' W 122°17'0 0.0
2017-Nov-02 05:28N 37°47' W 122°17'0 0.0
2017-Nov-02 04:55N 37°47' W 122°17'0 0.0
2017-Nov-02 04:28N 37°47' W 122°17'0 0.0
2017-Nov-02 03:58N 37°47' W 122°17'0 0.0
2017-Nov-02 03:28N 37°47' W 122°17'0 0.0
2017-Nov-02 02:58N 37°47' W 122°17'0 0.0
2017-Nov-02 02:28N 37°47' W 122°17'0 0.0
2017-Nov-02 01:58N 37°47' W 122°17'0 0.0
2017-Nov-02 01:28N 37°47' W 122°17'0 0.0
2017-Nov-02 00:58N 37°47' W 122°17'0 0.0
2017-Nov-02 00:28N 37°47' W 122°17'0 0.0
2017-Nov-01 23:58N 37°47' W 122°17'0 0.0
2017-Nov-01 23:28N 37°47' W 122°17'0 0.0
2017-Nov-01 22:58N 37°47' W 122°17'0 0.0
2017-Nov-01 22:28N 37°47' W 122°17'0 0.0
2017-Nov-01 21:58N 37°47' W 122°17'0 0.0
2017-Nov-01 21:28N 37°47' W 122°17'0 0.0
2017-Nov-01 20:59N 37°47' W 122°17'0 0.0
2017-Nov-01 20:28N 37°47' W 122°17'0 0.0
2017-Nov-01 19:58N 37°47' W 122°17'0 0.0
2017-Nov-01 19:28N 37°47' W 122°17'0 0.0
2017-Nov-01 18:55N 37°47' W 122°17'0 0.0
2017-Nov-01 18:28N 37°47' W 122°17'0 0.0
2017-Nov-01 02:00N 37°47' W 122°17'0 0.0
2017-Nov-01 01:30N 37°47' W 122°17'0 0.0
2017-Nov-01 01:00N 37°47' W 122°17'0 0.1
2017-Nov-01 00:30N 37°47' W 122°17'0 0.1
2017-Nov-01 00:00N 37°47' W 122°17'0 0.0
2017-Oct-31 23:30N 37°47' W 122°17'0 0.0
2017-Oct-31 23:00N 37°47' W 122°17'0 0.0
2017-Oct-31 22:30N 37°47' W 122°17'0 0.0
2017-Oct-31 22:00N 37°47' W 122°17'0 0.0
2017-Oct-31 21:30N 37°47' W 122°17'0 0.0
2017-Oct-31 21:00N 37°47' W 122°17'0 0.0
2017-Oct-31 20:30N 37°47' W 122°17'0 0.0
2017-Oct-31 20:00N 37°47' W 122°17'0 0.0
2017-Oct-31 19:30N 37°47' W 122°17'0 0.0
2017-Oct-31 19:00N 37°47' W 122°17'0 0.0
2017-Oct-31 18:30N 37°47' W 122°17'0 0.0
2017-Oct-31 18:00N 37°47' W 122°17'0 0.0
2017-Oct-31 17:30N 37°47' W 122°17'0 0.0
2017-Oct-31 17:00N 37°47' W 122°17'0 0.0
2017-Oct-31 16:30N 37°47' W 122°17'0 0.0
2017-Oct-31 16:00N 37°47' W 122°17'0 0.0
2017-Oct-31 15:30N 37°47' W 122°17'0 0.0
2017-Oct-31 15:00N 37°47' W 122°17'0 0.1
2017-Oct-31 14:30N 37°47' W 122°17'0 0.1
2017-Oct-31 14:00N 37°47' W 122°17'0 0.0
2017-Oct-31 13:30N 37°47' W 122°17'0 0.0
2017-Oct-31 13:00N 37°47' W 122°17'0 0.0
2017-Oct-31 12:30N 37°47' W 122°17'0 0.0
2017-Oct-31 12:00N 37°47' W 122°17'0 0.0
2017-Oct-31 11:30N 37°47' W 122°17'0 0.0
2017-Oct-31 11:00N 37°47' W 122°17'0 0.0
2017-Oct-31 10:30N 37°47' W 122°17'0 0.0
2017-Oct-31 10:00N 37°47' W 122°17'0 0.0
2017-Oct-31 09:30N 37°47' W 122°17'0 0.0
2017-Oct-31 09:00N 37°47' W 122°17'0 0.0
2017-Oct-31 08:30N 37°47' W 122°17'0 0.0
2017-Oct-31 08:00N 37°47' W 122°17'0 0.0
2017-Oct-31 07:30N 37°47' W 122°17'0 0.0
2017-Oct-31 07:00N 37°47' W 122°17'0 0.0
2017-Oct-31 06:30N 37°47' W 122°17'0 0.0
2017-Oct-31 06:00N 37°47' W 122°17'0 0.0
2017-Oct-31 05:30N 37°47' W 122°17'0 0.0
2017-Oct-31 05:00N 37°47' W 122°17'0 0.1
2017-Oct-31 04:30N 37°47' W 122°17'0 0.1
2017-Oct-31 04:00N 37°47' W 122°17'0 0.0
2017-Oct-31 03:30N 37°47' W 122°17'0 0.0
2017-Oct-31 03:00N 37°47' W 122°17'0 0.0
2017-Oct-31 02:27N 37°47' W 122°17'0 0.0
2017-Oct-31 02:00N 37°47' W 122°17'0 0.0
2017-Oct-31 01:30N 37°47' W 122°17'0 0.0
2017-Oct-31 01:00N 37°47' W 122°17'0 0.1
2017-Oct-31 00:30N 37°47' W 122°17'0 0.1
2017-Oct-31 00:00N 37°47' W 122°17'0 0.0
2017-Oct-30 23:30N 37°47' W 122°17'0 0.2
2017-Oct-30 23:00N 37°48' W 122°17'0 0.0
2017-Oct-30 22:31N 37°48' W 122°17'0 0.1
2017-Oct-30 21:58N 37°47' W 122°17'0 0.0
2017-Oct-30 21:28N 37°47' W 122°17'0 0.0
2017-Oct-30 20:58N 37°47' W 122°17'0 0.0
2017-Oct-30 20:28N 37°47' W 122°17'0 0.0
2017-Oct-30 19:58N 37°47' W 122°17'0 0.0
2017-Oct-30 19:28N 37°47' W 122°17'0 0.0
2017-Oct-30 18:58N 37°47' W 122°17'0 0.0
2017-Oct-30 18:28N 37°47' W 122°17'0 0.0
2017-Oct-30 17:58N 37°47' W 122°17'0 0.0
2017-Oct-30 17:28N 37°47' W 122°17'0 0.0
2017-Oct-30 16:58N 37°47' W 122°17'  

Dump ship's entire track history